Time;durP1;ratioP1;P1;durP2;ratioP2;P2;SDS_P1;SDS_P2;PMS_P1;PMS_P2;Temp;Humidity;BMP_temperature;BMP_pressure;BME280_temperature;BME280_humidity;BME280_pressure;Samples;Min_cycle;Max_cycle;Signal;HPM_P1;HPM_P2
2022/03/27 00:01:28;;;;;;;5.05;4.45;;;;;;;9.85;100.00;103279.16;10414462;28;20121;-72
2022/03/27 00:06:28;;;;;;;6.60;5.68;;;;;;;9.88;100.00;103300.53;10414488;28;20037;-73
2022/03/27 00:11:28;;;;;;;7.18;6.47;;;;;;;9.86;100.00;103288.97;10413450;28;20091;-72
2022/03/27 00:16:29;;;;;;;7.50;6.47;;;;;;;9.93;100.00;103292.88;10413787;28;20584;-72
2022/03/27 00:21:29;;;;;;;5.70;5.20;;;;;;;9.98;100.00;103291.44;10415226;28;20099;-71
2022/03/27 00:26:30;;;;;;;5.88;4.90;;;;;;;10.02;100.00;103282.09;10415244;28;20370;-72
2022/03/27 00:31:35;;;;;;;5.50;5.00;;;;;;;10.09;100.00;103281.56;10414098;28;20057;-73
2022/03/27 00:36:36;;;;;;;6.68;5.60;;;;;;;10.19;100.00;103268.91;10398277;28;20433;-72
2022/03/27 00:41:36;;;;;;;5.10;4.60;;;;;;;10.13;100.00;103277.56;10397229;28;20073;-73
2022/03/27 00:46:37;;;;;;;7.20;4.93;;;;;;;10.22;100.00;103284.88;10418921;28;20026;-72
2022/03/27 00:51:37;;;;;;;9.48;5.97;;;;;;;10.20;100.00;103286.84;10422135;28;20076;-71
2022/03/27 00:56:38;;;;;;;5.85;5.10;;;;;;;10.17;100.00;103287.97;10421894;28;20041;-73
2022/03/27 01:01:39;;;;;;;8.88;6.10;;;;;;;10.06;100.00;103271.84;10420730;28;20049;-72
2022/03/27 01:06:41;;;;;;;6.25;5.70;;;;;;;10.08;100.00;103285.22;10420380;28;20104;-72
2022/03/27 01:11:42;;;;;;;5.82;5.18;;;;;;;10.00;100.00;103288.63;10420660;28;20033;-72
2022/03/27 01:16:43;;;;;;;4.82;4.45;;;;;;;9.78;100.00;103292.34;10421411;28;20492;-71
2022/03/27 01:21:45;;;;;;;5.38;4.88;;;;;;;9.59;100.00;103282.28;10421225;28;20083;-72
2022/03/27 01:26:46;;;;;;;7.28;6.50;;;;;;;9.51;100.00;103273.97;10422432;28;20045;-72
2022/03/27 01:31:47;;;;;;;6.63;5.63;;;;;;;9.49;100.00;103273.25;10418787;28;20030;-72
2022/03/27 01:36:47;;;;;;;6.53;5.90;;;;;;;9.45;100.00;103278.06;10419162;28;20045;-72
2022/03/27 01:41:48;;;;;;;10.43;7.45;;;;;;;9.38;100.00;103259.78;10420492;28;20396;-72
2022/03/27 01:46:48;;;;;;;7.18;6.47;;;;;;;9.39;100.00;103270.47;10419651;28;20048;-72
2022/03/27 01:51:49;;;;;;;7.97;6.40;;;;;;;9.32;100.00;103272.00;10420662;28;20045;-72
2022/03/27 01:56:49;;;;;;;7.13;6.43;;;;;;;9.17;100.00;103276.00;10419196;28;20444;-72
2022/03/27 02:01:50;;;;;;;7.20;6.43;;;;;;;9.14;100.00;103273.56;10420321;28;20056;-73
2022/03/27 02:06:50;;;;;;;7.30;6.60;;;;;;;9.07;100.00;103276.78;10418159;28;20079;-73
2022/03/27 02:11:50;;;;;;;13.13;6.90;;;;;;;9.01;100.00;103271.03;10401363;28;20389;-72
2022/03/27 02:16:51;;;;;;;9.48;7.22;;;;;;;9.06;100.00;103275.06;10402237;28;20044;-73
2022/03/27 02:21:52;;;;;;;10.80;7.72;;;;;;;8.92;100.00;103275.34;10417584;28;20033;-73
2022/03/27 02:26:52;;;;;;;13.00;8.95;;;;;;;8.80;100.00;103274.53;10416664;28;20392;-72
2022/03/27 02:31:54;;;;;;;10.55;8.63;;;;;;;8.67;100.00;103268.44;10416533;28;20112;-72
2022/03/27 02:36:54;;;;;;;9.85;8.35;;;;;;;8.59;100.00;103262.81;10418010;28;20043;-73
2022/03/27 02:41:54;;;;;;;13.75;9.55;;;;;;;8.64;100.00;103265.13;10416627;28;20047;-71
2022/03/27 02:46:55;;;;;;;13.30;9.73;;;;;;;8.55;100.00;103258.63;10416721;28;20040;-72
2022/03/27 02:51:56;;;;;;;12.45;9.60;;;;;;;8.45;100.00;103269.31;10418301;28;20409;-72
2022/03/27 02:56:56;;;;;;;10.15;8.32;;;;;;;8.31;100.00;103258.78;10416481;28;20120;-72
2022/03/27 03:01:57;;;;;;;10.52;8.30;;;;;;;8.11;100.00;103268.50;10417576;28;20120;-72
2022/03/27 03:06:57;;;;;;;12.70;8.18;;;;;;;8.03;100.00;103254.75;10415229;28;20337;-72
2022/03/27 03:11:58;;;;;;;10.57;8.80;;;;;;;7.98;100.00;103254.28;10415806;28;20114;-72
2022/03/27 03:16:58;;;;;;;11.55;10.35;;;;;;;8.07;100.00;103248.13;10416724;28;20108;-72
2022/03/27 03:21:58;;;;;;;15.15;10.18;;;;;;;8.14;100.00;103254.75;10415821;28;20033;-72
2022/03/27 03:26:59;;;;;;;10.07;8.77;;;;;;;8.06;100.00;103249.97;10417260;28;20044;-72
2022/03/27 03:32:00;;;;;;;10.52;8.82;;;;;;;7.97;100.00;103245.28;10399506;28;20025;-72
2022/03/27 03:37:01;;;;;;;14.95;10.57;;;;;;;8.02;100.00;103248.50;10414591;28;20535;-73
2022/03/27 03:42:01;;;;;;;12.43;9.32;;;;;;;8.09;100.00;103247.00;10415801;28;20452;-71
2022/03/27 03:47:02;;;;;;;13.27;9.45;;;;;;;8.07;100.00;103238.22;10416723;28;20378;-73
2022/03/27 03:52:02;;;;;;;11.20;8.40;;;;;;;8.10;100.00;103239.78;10413606;28;20334;-72
2022/03/27 03:57:03;;;;;;;12.32;9.88;;;;;;;8.10;100.00;103242.47;10415665;28;20047;-73
2022/03/27 04:02:13;;;;;;;12.35;9.13;;;;;;;8.08;100.00;103249.84;10415525;28;20059;-72
2022/03/27 04:07:14;;;;;;;16.05;11.23;;;;;;;8.04;100.00;103246.53;10398833;28;20092;-72
2022/03/27 04:12:14;;;;;;;10.55;9.10;;;;;;;8.01;100.00;103248.59;10414810;28;20037;-72
2022/03/27 04:17:15;;;;;;;10.93;8.75;;;;;;;8.05;100.00;103250.09;10413150;28;20045;-71
2022/03/27 04:22:15;;;;;;;10.65;8.40;;;;;;;7.78;100.00;103248.59;10421834;28;20068;-72
2022/03/27 04:27:16;;;;;;;12.57;8.82;;;;;;;7.68;100.00;103253.00;10422053;28;20033;-72
2022/03/27 04:32:17;;;;;;;12.23;10.43;;;;;;;7.72;100.00;103253.63;10422297;28;20045;-73
2022/03/27 04:37:17;;;;;;;10.57;9.15;;;;;;;7.69;100.00;103252.91;10423793;28;20033;-72
2022/03/27 04:42:17;;;;;;;14.70;10.05;;;;;;;7.80;100.00;103256.59;10421550;28;20091;-72
2022/03/27 04:47:18;;;;;;;12.55;10.05;;;;;;;7.75;100.00;103253.38;10421898;28;20527;-72
2022/03/27 04:52:18;;;;;;;15.27;11.52;;;;;;;7.83;100.00;103259.03;10421993;28;20029;-72
2022/03/27 04:57:19;;;;;;;12.63;11.13;;;;;;;7.89;100.00;103264.81;10421228;28;20091;-71
2022/03/27 05:02:19;;;;;;;20.67;10.98;;;;;;;7.83;100.00;103272.53;10421917;28;20057;-71
2022/03/27 05:07:20;;;;;;;13.02;8.85;;;;;;;7.73;100.00;103267.00;10421103;28;20084;-72
2022/03/27 05:12:20;;;;;;;9.02;6.95;;;;;;;7.57;100.00;103278.13;10420847;28;20113;-72
2022/03/27 05:17:20;;;;;;;8.90;7.47;;;;;;;7.35;100.00;103265.44;10422386;28;20373;-72
2022/03/27 05:22:21;;;;;;;8.00;6.63;;;;;;;7.37;100.00;103274.28;10421087;28;20107;-73
2022/03/27 05:27:21;;;;;;;7.18;6.47;;;;;;;7.35;100.00;103273.53;10403174;28;20073;-72
2022/03/27 05:32:22;;;;;;;8.77;7.88;;;;;;;7.28;100.00;103276.84;10419347;28;20029;-73
2022/03/27 05:37:22;;;;;;;10.48;7.05;;;;;;;7.15;100.00;103277.78;10420256;28;20072;-72
2022/03/27 05:42:22;;;;;;;9.43;8.50;;;;;;;7.15;100.00;103277.78;10420760;28;20381;-72
2022/03/27 05:47:23;;;;;;;12.63;8.35;;;;;;;7.04;100.00;103271.47;10419257;28;20045;-72
2022/03/27 05:52:23;;;;;;;9.07;7.75;;;;;;;7.03;100.00;103267.06;10420547;28;20041;-72
2022/03/27 05:57:24;;;;;;;8.85;7.90;;;;;;;7.08;100.00;103270.25;10401105;28;20033;-73
2022/03/27 06:02:24;;;;;;;10.25;8.15;;;;;;;7.19;100.00;103273.84;10421151;28;20047;-71
2022/03/27 06:07:25;;;;;;;9.18;7.70;;;;;;;7.29;100.00;103273.16;10418640;28;20056;-72
2022/03/27 06:12:26;;;;;;;7.18;6.45;;;;;;;7.40;100.00;103283.94;10417338;28;20038;-73
2022/03/27 06:17:26;;;;;;;8.50;6.70;;;;;;;7.39;100.00;103290.34;10418295;28;20065;-71
2022/03/27 06:22:27;;;;;;;8.25;4.75;;;;;;;7.29;100.00;103289.31;10419515;28;20033;-71
2022/03/27 06:27:27;;;;;;;9.63;7.35;;;;;;;7.17;100.00;103291.09;10420404;28;20115;-72
2022/03/27 06:32:28;;;;;;;9.10;7.28;;;;;;;7.42;100.00;103300.88;10417773;28;20544;-72
2022/03/27 06:37:29;;;;;;;5.82;5.32;;;;;;;7.56;100.00;103300.69;10419413;28;20060;-72
2022/03/27 06:42:29;;;;;;;7.80;7.00;;;;;;;8.70;99.57;103297.88;10416677;28;20033;-73
2022/03/27 06:47:30;;;;;;;5.55;4.97;;;;;;;10.09;90.00;103285.13;10417331;28;20034;-72
2022/03/27 06:52:30;;;;;;;6.10;5.50;;;;;;;10.95;84.36;103290.94;10417831;28;20036;-72
2022/03/27 06:57:32;;;;;;;3.95;3.70;;;;;;;11.37;79.38;103287.94;10399470;28;20049;-73
2022/03/27 07:07:52;;;;;;;5.90;5.15;;;;;;;9.42;85.53;103286.44;10402126;28;20033;-70
2022/03/27 07:12:53;;;;;;;6.15;5.18;;;;;;;10.50;82.87;103299.56;10416837;28;20029;-72
2022/03/27 07:17:53;;;;;;;5.47;4.50;;;;;;;11.54;78.68;103289.03;10415570;28;20179;-72
2022/03/27 07:22:55;;;;;;;5.00;4.45;;;;;;;12.10;75.50;103280.91;10415712;28;20033;-71
2022/03/27 07:27:56;;;;;;;7.97;5.18;;;;;;;12.60;74.23;103281.50;10414848;28;20116;-70
2022/03/27 07:32:57;;;;;;;5.20;4.70;;;;;;;13.22;71.09;103272.44;10415279;28;20475;-71
2022/03/27 07:37:57;;;;;;;5.72;4.75;;;;;;;13.64;71.45;103276.38;10414868;28;20068;-71
2022/03/27 07:42:59;;;;;;;7.75;6.57;;;;;;;14.06;68.44;103273.72;10414304;28;20037;-71
2022/03/27 07:47:59;;;;;;;7.00;5.82;;;;;;;13.82;66.29;103269.00;10415509;28;20044;-71
2022/03/27 07:53:00;;;;;;;8.05;6.35;;;;;;;13.97;65.42;103271.97;10415752;28;20084;-70
2022/03/27 07:58:01;;;;;;;6.18;5.65;;;;;;;13.98;65.04;103281.00;10415946;28;20050;-72
2022/03/27 08:03:01;;;;;;;7.88;5.38;;;;;;;14.31;58.53;103268.38;10416750;28;20030;-72
2022/03/27 08:08:02;;;;;;;4.35;4.00;;;;;;;14.45;58.06;103275.06;10413849;28;20064;-72
2022/03/27 08:13:02;;;;;;;4.38;3.97;;;;;;;14.91;56.03;103272.84;10414229;28;20469;-71
2022/03/27 08:18:02;;;;;;;4.20;3.80;;;;;;;14.85;52.36;103277.09;10413489;28;20045;-72
2022/03/27 08:23:03;;;;;;;5.78;4.20;;;;;;;14.70;45.87;103281.50;10414108;28;20116;-72
2022/03/27 08:28:04;;;;;;;4.70;3.88;;;;;;;14.82;47.10;103271.97;10413288;28;20045;-71
2022/03/27 08:33:04;;;;;;;3.80;3.47;;;;;;;15.18;45.02;103277.97;10413211;28;20030;-72
2022/03/27 08:38:05;;;;;;;6.00;4.30;;;;;;;15.44;42.99;103283.25;10413104;28;20421;-71
2022/03/27 08:43:09;;;;;;;4.13;3.75;;;;;;;15.15;42.70;103272.84;10413439;28;20041;-70
2022/03/27 08:48:10;;;;;;;4.28;3.90;;;;;;;15.61;44.19;103266.88;10380338;28;20381;-71
2022/03/27 08:53:14;;;;;;;11.85;3.75;;;;;;;15.95;42.57;103264.78;10414348;28;20040;-70
2022/03/27 08:58:14;;;;;;;6.07;3.63;;;;;;;16.20;43.06;103261.94;10414208;28;20057;-69
2022/03/27 09:03:14;;;;;;;4.68;3.40;;;;;;;16.71;41.55;103259.63;10414046;28;20426;-73
2022/03/27 09:08:15;;;;;;;3.72;3.42;;;;;;;16.46;39.00;103270.72;10419142;28;20460;-70
2022/03/27 09:13:16;;;;;;;8.40;4.00;;;;;;;16.61;38.01;103267.19;10419517;28;20041;-70
2022/03/27 09:18:17;;;;;;;5.60;2.95;;;;;;;16.49;36.52;103264.84;10422070;28;20404;-70
2022/03/27 09:23:21;;;;;;;9.90;3.85;;;;;;;16.82;37.99;103261.13;10420739;28;20044;-71
2022/03/27 09:28:25;;;;;;;3.05;2.85;;;;;;;17.25;36.57;103259.59;10420634;28;20033;-70
2022/03/27 09:33:36;;;;;;;4.10;3.33;;;;;;;17.31;37.23;103252.53;10419292;28;20034;-69
2022/03/27 09:38:37;;;;;;;5.82;3.75;;;;;;;17.62;37.92;103253.25;10420421;28;20033;-70
2022/03/27 09:43:38;;;;;;;3.05;2.75;;;;;;;18.00;36.38;103255.94;10421405;28;20038;-71
2022/03/27 09:48:54;;;;;;;4.38;3.97;;;;;;;18.01;34.40;103249.41;10419959;28;20041;-69
2022/03/27 09:53:58;;;;;;;3.40;3.10;;;;;;;17.87;35.10;103253.03;10418466;28;20034;-70
2022/03/27 09:58:58;;;;;;;3.20;2.90;;;;;;;18.08;35.55;103254.97;10420826;28;20057;-69
2022/03/27 10:04:03;;;;;;;3.88;3.60;;;;;;;18.41;35.22;103241.72;10419401;28;20033;-71
2022/03/27 10:09:05;;;;;;;4.07;3.30;;;;;;;18.64;34.22;103246.19;10401008;28;20461;-69
2022/03/27 10:14:06;;;;;;;2.97;2.65;;;;;;;19.07;33.59;103236.06;10418956;28;20038;-69
2022/03/27 10:19:10;;;;;;;3.28;3.05;;;;;;;19.32;34.25;103233.75;10416446;28;20042;-71
2022/03/27 10:24:14;;;;;;;2.35;2.25;;;;;;;19.21;32.97;103232.41;10418257;28;20080;-69
2022/03/27 10:29:14;;;;;;;4.60;2.90;;;;;;;19.15;34.79;103230.47;10418357;28;20029;-70
2022/03/27 10:34:15;;;;;;;3.40;3.05;;;;;;;19.27;35.63;103220.63;10400332;28;20116;-73
2022/03/27 10:39:25;;;;;;;5.40;3.25;;;;;;;19.46;33.42;103219.09;10416726;28;20369;-72
2022/03/27 10:44:47;;;;;;;5.50;2.70;;;;;;;19.76;33.84;103212.53;10418328;28;20428;-71
2022/03/27 10:50:08;;;;;;;4.82;3.63;;;;;;;19.36;32.57;103223.22;10400846;28;20029;-72
2022/03/27 10:55:12;;;;;;;3.70;3.40;;;;;;;19.07;34.58;103208.63;10353937;28;20136;-68
2022/03/27 11:00:14;;;;;;;4.45;3.35;;;;;;;19.54;32.40;103200.75;10432422;28;20138;-71
2022/03/27 11:05:30;;;;;;;5.82;2.80;;;;;;;19.56;32.31;103198.63;10399297;28;20034;-70
2022/03/27 11:10:40;;;;;;;3.50;3.17;;;;;;;20.03;31.01;103183.25;10417278;28;20061;-69
2022/03/27 11:16:02;;;;;;;7.25;2.88;;;;;;;19.55;30.12;103191.44;10415262;28;20040;-72
2022/03/27 11:21:03;;;;;;;5.65;2.15;;;;;;;20.03;30.83;103188.75;10417790;28;20072;-72
2022/03/27 11:26:05;;;;;;;5.45;2.78;;;;;;;20.05;29.03;103179.25;10415869;28;20484;-71
2022/03/27 11:31:08;;;;;;;3.67;3.25;;;;;;;20.14;31.09;103178.03;10414074;28;20157;-70
2022/03/27 11:36:09;;;;;;;6.00;3.85;;;;;;;20.40;31.83;103170.91;10414575;28;20060;-71
2022/03/27 11:41:22;;;;;;;3.17;2.85;;;;;;;21.34;30.83;103167.16;10415810;28;20103;-71
2022/03/27 11:46:26;;;;;;;4.50;3.00;;;;;;;22.19;34.40;103156.09;10415563;28;20500;-75
2022/03/27 11:51:27;;;;;;;5.72;3.10;;;;;;;22.29;27.20;103154.53;10413487;28;20095;-71
2022/03/27 11:56:28;;;;;;;8.13;3.08;;;;;;;22.03;29.36;103144.47;10414495;28;20430;-73
2022/03/27 12:01:28;;;;;;;2.95;2.75;;;;;;;22.45;31.71;103133.84;10413033;28;20061;-74
2022/03/27 12:06:28;;;;;;;3.10;2.83;;;;;;;22.37;25.67;103139.66;10414630;28;20038;-73
2022/03/27 12:11:29;;;;;;;2.92;2.72;;;;;;;22.25;26.39;103125.69;10413291;28;20442;-72
2022/03/27 12:16:31;;;;;;;4.63;2.20;;;;;;;22.67;28.07;103122.44;10414870;28;20099;-74
2022/03/27 12:21:31;;;;;;;1.90;1.80;;;;;;;23.35;31.17;103121.59;10413770;28;20029;-73
2022/03/27 12:32:04;;;;;;;1.67;1.58;;;;;;;22.61;26.04;103098.47;10353075;28;20042;-71
2022/03/27 12:37:11;;;;;;;8.50;1.85;;;;;;;22.46;24.50;103105.19;10373619;28;20117;-69
2022/03/27 12:42:30;;;;;;;2.25;2.03;;;;;;;21.76;22.22;103096.00;10392881;28;20037;-71
2022/03/27 12:47:38;;;;;;;1.13;1.13;;;;;;;21.43;22.31;103085.94;10381427;28;20036;-72
2022/03/27 12:52:52;;;;;;;2.88;1.70;;;;;;;21.69;25.69;103068.44;10398005;28;20091;-74
2022/03/27 12:57:56;;;;;;;1.50;1.25;;;;;;;22.20;22.35;103067.56;10381086;28;20050;-73
2022/03/27 13:03:19;;;;;;;1.27;1.17;;;;;;;21.88;22.73;103052.03;10380303;28;20045;-73
2022/03/27 13:08:31;;;;;;;1.42;1.33;;;;;;;21.63;21.06;103047.28;10381060;28;20120;-72
2022/03/27 13:13:41;;;;;;;1.20;1.20;;;;;;;21.69;22.36;103037.28;10332129;28;20057;-73
2022/03/27 13:18:42;;;;;;;2.72;1.20;;;;;;;22.09;24.42;103037.06;10384399;28;20042;-73
2022/03/27 13:23:42;;;;;;;2.08;0.82;;;;;;;22.27;22.77;103028.84;10383579;28;20386;-72
2022/03/27 13:28:43;;;;;;;3.67;1.73;;;;;;;22.05;20.03;103031.13;10381798;28;20120;-70
2022/03/27 13:33:43;;;;;;;0.80;0.80;;;;;;;21.74;19.80;103018.16;10379487;28;20362;-72
2022/03/27 13:38:43;;;;;;;2.70;1.25;;;;;;;21.18;22.50;103007.78;10379281;28;20046;-71
2022/03/27 13:43:44;;;;;;;1.00;1.00;;;;;;;21.46;23.10;102994.56;10378513;28;20026;-68
2022/03/27 13:48:44;;;;;;;1.27;1.17;;;;;;;21.33;25.24;103005.63;10378725;28;20465;-70
2022/03/27 13:53:45;;;;;;;1.90;1.48;;;;;;;21.43;24.15;102986.72;10377840;28;20041;-71
2022/03/27 13:58:45;;;;;;;2.60;1.20;;;;;;;21.37;23.09;102990.34;10360328;28;20065;-72
2022/03/27 14:03:46;;;;;;;2.08;1.52;;;;;;;21.03;25.17;102986.88;10379014;28;20085;-73
2022/03/27 14:08:46;;;;;;;1.67;1.55;;;;;;;21.09;23.29;102982.38;10377620;28;20544;-71
2022/03/27 14:13:46;;;;;;;1.20;1.10;;;;;;;20.56;22.29;102977.00;10378117;28;20037;-72
2022/03/27 14:18:47;;;;;;;1.35;1.25;;;;;;;20.88;23.09;102975.25;10378118;28;20033;-72
2022/03/27 14:23:48;;;;;;;1.60;1.50;;;;;;;20.40;23.45;102978.25;10361586;28;20502;-72
2022/03/27 14:28:48;;;;;;;1.83;1.48;;;;;;;20.62;25.23;102974.25;10330029;28;20537;-70
2022/03/27 14:33:49;;;;;;;1.95;1.63;;;;;;;20.37;22.92;102973.19;10377561;28;20054;-71
2022/03/27 14:38:49;;;;;;;2.70;1.88;;;;;;;19.96;24.97;102969.56;10375954;28;20038;-69
2022/03/27 14:43:49;;;;;;;2.75;1.55;;;;;;;20.04;25.30;102963.03;10392306;28;20116;-71
2022/03/27 14:48:50;;;;;;;2.28;1.67;;;;;;;19.65;23.89;102958.31;10376763;28;20065;-71
2022/03/27 14:59:09;;;;;;;3.63;2.08;;;;;;;19.87;26.92;102948.81;10376614;28;20093;-71
2022/03/27 15:04:09;;;;;;;2.05;1.95;;;;;;;19.15;26.58;102944.81;10374677;28;20038;-71
2022/03/27 15:09:10;;;;;;;1.95;1.35;;;;;;;18.28;25.75;102934.34;10374394;28;20091;-72
2022/03/27 15:14:10;;;;;;;1.63;1.27;;;;;;;17.52;26.68;102923.94;10376300;28;20030;-71
2022/03/27 15:19:11;;;;;;;3.40;1.95;;;;;;;17.08;27.39;102924.06;10375045;28;20060;-71
2022/03/27 15:24:11;;;;;;;2.00;1.13;;;;;;;16.91;28.00;102918.78;10376303;28;20081;-74
2022/03/27 15:29:12;;;;;;;3.50;1.75;;;;;;;16.66;28.33;102918.22;10375545;28;20038;-71
2022/03/27 15:34:12;;;;;;;1.20;1.17;;;;;;;16.31;28.37;102918.94;10375733;28;20095;-71
2022/03/27 15:39:12;;;;;;;4.50;2.33;;;;;;;15.75;29.63;102922.81;10375439;28;20115;-73
2022/03/27 15:44:18;;;;;;;4.78;2.90;;;;;;;15.83;30.79;102921.09;10376524;28;20117;-71
2022/03/27 15:49:18;;;;;;;7.30;2.60;;;;;;;15.83;31.03;102891.88;10375292;28;20030;-73
2022/03/27 15:54:19;;;;;;;3.13;2.22;;;;;;;15.88;31.81;102899.50;10359586;28;20026;-71
2022/03/27 15:59:20;;;;;;;3.80;2.38;;;;;;;15.81;32.51;102888.47;10375562;28;20089;-72
2022/03/27 16:04:20;;;;;;;7.45;2.38;;;;;;;15.58;34.15;102888.47;10376255;28;20050;-72
2022/03/27 16:09:21;;;;;;;3.53;2.88;;;;;;;15.40;35.08;102894.19;10374815;28;20061;-71
2022/03/27 16:14:22;;;;;;;5.82;3.47;;;;;;;15.27;37.22;102883.88;10372922;28;20528;-72
2022/03/27 16:19:23;;;;;;;9.55;2.90;;;;;;;15.32;37.13;102873.28;10357944;28;20126;-72
2022/03/27 16:24:23;;;;;;;8.98;2.92;;;;;;;15.34;38.41;102884.00;10390927;28;20491;-73
2022/03/27 16:29:24;;;;;;;14.40;2.75;;;;;;;15.15;39.17;102877.13;10374056;28;20041;-72
2022/03/27 16:34:29;;;;;;;2.75;2.50;;;;;;;15.07;39.23;102874.47;10372673;28;20053;-71
2022/03/27 16:39:30;;;;;;;10.77;3.75;;;;;;;14.97;40.52;102879.28;10373608;28;20385;-72
2022/03/27 16:44:30;;;;;;;4.57;3.42;;;;;;;14.74;41.57;102882.81;10372967;28;20045;-72
2022/03/27 16:49:31;;;;;;;8.70;3.45;;;;;;;14.65;41.36;102876.53;10374083;28;20113;-72
2022/03/27 16:54:31;;;;;;;17.00;3.72;;;;;;;14.68;40.76;102874.47;10372121;28;20073;-72
2022/03/27 16:59:32;;;;;;;4.55;3.55;;;;;;;14.51;42.42;102876.41;10372579;28;20065;-71
2022/03/27 17:04:32;;;;;;;12.93;3.65;;;;;;;14.45;42.74;102872.47;10372672;28;20044;-72
2022/03/27 17:09:32;;;;;;;8.02;3.78;;;;;;;14.33;43.23;102874.72;10373627;28;20038;-72
2022/03/27 17:14:33;;;;;;;9.25;4.35;;;;;;;14.18;43.19;102876.47;10373656;28;20038;-72
2022/03/27 17:19:34;;;;;;;7.82;3.85;;;;;;;14.08;44.91;102882.09;10372379;28;20496;-71
2022/03/27 17:24:34;;;;;;;8.15;4.32;;;;;;;13.92;45.04;102879.38;10372548;28;20160;-73
2022/03/27 17:29:35;;;;;;;10.40;3.13;;;;;;;13.77;46.04;102879.22;10376455;28;20092;-72
2022/03/27 17:34:35;;;;;;;18.05;5.38;;;;;;;13.68;46.31;102881.06;10379653;28;20497;-72
2022/03/27 17:39:36;;;;;;;11.05;4.47;;;;;;;13.50;48.01;102883.13;10377887;28;20540;-72
2022/03/27 17:44:37;;;;;;;19.45;4.18;;;;;;;13.33;49.28;102884.09;10394352;28;20026;-72
2022/03/27 17:49:37;;;;;;;16.63;5.05;;;;;;;13.24;48.03;102889.53;10378962;28;20065;-73
2022/03/27 17:54:38;;;;;;;6.28;4.72;;;;;;;13.05;51.05;102892.53;10377948;28;20168;-71
2022/03/27 17:59:38;;;;;;;23.42;5.07;;;;;;;12.92;49.80;102895.72;10379816;28;20081;-72
2022/03/27 18:04:38;;;;;;;13.38;5.05;;;;;;;12.73;51.31;102894.09;10377521;28;20038;-73
2022/03/27 18:09:39;;;;;;;16.10;4.22;;;;;;;12.61;49.70;102900.81;10378448;28;20034;-72
2022/03/27 18:14:39;;;;;;;16.05;5.35;;;;;;;12.42;51.44;102899.19;10377116;28;20492;-71
2022/03/27 18:19:40;;;;;;;17.13;4.60;;;;;;;12.30;52.35;102900.47;10378255;28;20066;-73
2022/03/27 18:24:40;;;;;;;15.07;4.40;;;;;;;12.22;50.66;102893.13;10377393;28;20046;-70
2022/03/27 18:29:41;;;;;;;22.23;4.53;;;;;;;12.08;50.64;102901.84;10378637;28;20069;-71
2022/03/27 18:34:41;;;;;;;13.20;5.97;;;;;;;11.94;51.49;102899.72;10377379;28;20041;-71
2022/03/27 18:39:42;;;;;;;10.02;4.20;;;;;;;11.85;52.15;102899.63;10376209;28;20041;-72
2022/03/27 18:44:42;;;;;;;9.93;4.28;;;;;;;11.78;50.89;102905.81;10392766;28;20064;-73
2022/03/27 18:49:43;;;;;;;9.02;4.25;;;;;;;11.66;51.32;102916.06;10377098;28;20057;-71
2022/03/27 18:54:44;;;;;;;10.70;5.40;;;;;;;11.56;50.43;102910.72;10375752;28;20034;-71
2022/03/27 18:59:49;;;;;;;10.90;4.65;;;;;;;11.46;53.79;102909.09;10376778;28;20088;-72
2022/03/27 19:04:49;;;;;;;6.25;3.75;;;;;;;11.38;50.55;102918.81;10377845;28;20381;-72
2022/03/27 19:09:49;;;;;;;17.58;4.30;;;;;;;11.26;51.71;102911.91;10376578;28;20034;-72
2022/03/27 19:14:50;;;;;;;14.68;4.28;;;;;;;11.16;51.92;102916.53;10376196;28;20076;-72
2022/03/27 19:20:00;;;;;;;15.52;3.38;;;;;;;11.11;52.83;102919.72;10374198;28;20108;-72
2022/03/27 19:25:00;;;;;;;15.25;4.80;;;;;;;11.00;52.54;102924.50;10374095;28;20168;-72
2022/03/27 19:30:01;;;;;;;12.23;4.68;;;;;;;10.91;52.03;102928.94;10374848;28;20533;-72
2022/03/27 19:35:01;;;;;;;17.75;5.20;;;;;;;10.80;51.72;102926.44;10373581;28;20042;-72
2022/03/27 19:40:07;;;;;;;6.07;3.35;;;;;;;10.68;51.98;102920.34;10358390;28;20029;-71
2022/03/27 19:45:08;;;;;;;16.52;4.78;;;;;;;10.63;57.46;102918.09;10374061;28;20022;-71
2022/03/27 19:50:10;;;;;;;11.60;3.67;;;;;;;10.56;59.91;102903.44;10374016;28;20429;-72
2022/03/27 19:55:10;;;;;;;13.52;3.97;;;;;;;10.48;58.83;102909.59;10358194;28;20436;-72
2022/03/27 20:00:12;;;;;;;13.70;5.80;;;;;;;10.37;60.43;102907.06;10375025;28;20062;-72
2022/03/27 20:05:13;;;;;;;13.13;3.50;;;;;;;10.31;57.64;102913.06;10376063;28;20069;-72
2022/03/27 20:10:13;;;;;;;7.88;3.92;;;;;;;10.15;62.64;102910.09;10374182;28;20030;-71
2022/03/27 20:15:14;;;;;;;11.57;5.82;;;;;;;10.01;63.08;102901.41;10357466;28;20034;-73
2022/03/27 20:20:16;;;;;;;19.17;6.25;;;;;;;9.89;66.71;102899.00;10374315;28;20042;-73
2022/03/27 20:25:17;;;;;;;17.48;5.60;;;;;;;9.80;67.01;102889.06;10374217;28;20064;-70
2022/03/27 20:30:21;;;;;;;15.88;5.70;;;;;;;9.68;63.92;102877.53;10375196;28;20053;-73
2022/03/27 20:35:21;;;;;;;12.48;4.10;;;;;;;9.60;68.93;102882.78;10374607;28;20034;-73
2022/03/27 20:40:24;;;;;;;14.27;6.38;;;;;;;9.59;69.25;102889.19;10373217;28;20537;-75
2022/03/27 20:45:25;;;;;;;18.15;5.40;;;;;;;9.45;69.43;102877.81;10389129;28;20482;-78
2022/03/27 20:50:26;;;;;;;14.98;7.45;;;;;;;9.41;70.76;102879.09;10373017;28;20040;-74
2022/03/27 20:55:26;;;;;;;21.63;5.60;;;;;;;9.35;68.71;102876.06;10373671;28;20436;-75
2022/03/27 21:00:27;;;;;;;25.17;7.80;;;;;;;9.23;70.04;102873.50;10389066;28;20104;-73
2022/03/27 21:05:27;;;;;;;14.88;5.18;;;;;;;9.18;72.94;102873.06;10380042;28;20038;-78
2022/03/27 21:10:28;;;;;;;14.50;7.88;;;;;;;9.16;71.08;102885.03;10381655;28;20034;-73
2022/03/27 21:15:28;;;;;;;24.58;6.93;;;;;;;9.11;69.39;102876.47;10381421;28;20080;-73
2022/03/27 21:20:28;;;;;;;22.60;6.57;;;;;;;8.98;69.62;102869.47;10381459;28;20118;-73
2022/03/27 21:25:29;;;;;;;20.55;8.43;;;;;;;8.91;69.01;102860.22;10379917;28;20038;-75
2022/03/27 21:30:29;;;;;;;17.42;7.65;;;;;;;8.82;71.32;102855.66;10381753;28;20116;-75
2022/03/27 21:35:30;;;;;;;27.38;7.43;;;;;;;8.81;71.61;102852.09;10364712;28;20076;-71
2022/03/27 21:40:32;;;;;;;22.92;7.30;;;;;;;8.75;73.79;102849.94;10378952;28;20037;-72
2022/03/27 21:45:33;;;;;;;19.35;7.35;;;;;;;8.67;80.70;102857.88;10379398;28;20038;-71
2022/03/27 21:50:33;;;;;;;29.75;7.40;;;;;;;8.58;81.42;102861.38;10379786;28;20118;-71
2022/03/27 21:55:34;;;;;;;18.25;7.88;;;;;;;8.52;81.06;102872.72;10378219;28;20387;-72
2022/03/27 22:00:46;;;;;;;19.52;5.40;;;;;;;8.35;85.35;102869.63;10378138;28;20069;-71
2022/03/27 22:05:47;;;;;;;27.48;7.75;;;;;;;8.37;83.45;102866.81;10379290;28;20116;-72
2022/03/27 22:10:47;;;;;;;12.77;5.75;;;;;;;8.34;77.53;102869.78;10379266;28;20037;-72
2022/03/27 22:15:48;;;;;;;15.27;6.28;;;;;;;8.22;74.22;102858.22;10379521;28;20048;-72
2022/03/27 22:20:48;;;;;;;22.05;6.65;;;;;;;8.14;73.00;102858.03;10361573;28;20501;-71
2022/03/27 22:25:49;;;;;;;10.77;6.28;;;;;;;8.07;74.66;102863.13;10394308;28;20033;-71
2022/03/27 22:30:50;;;;;;;18.50;6.82;;;;;;;8.04;74.58;102857.13;10378526;28;20038;-72
2022/03/27 22:35:51;;;;;;;23.77;7.18;;;;;;;8.01;72.70;102851.97;10377940;28;20030;-72
2022/03/27 22:40:51;;;;;;;7.88;6.38;;;;;;;7.92;73.84;102853.66;10376583;28;20084;-71
2022/03/27 22:45:51;;;;;;;20.98;6.47;;;;;;;7.91;73.61;102849.22;10378126;28;20439;-72
2022/03/27 22:50:52;;;;;;;16.67;5.35;;;;;;;7.85;73.20;102845.22;10378238;28;20084;-71
2022/03/27 22:55:52;;;;;;;16.52;5.72;;;;;;;7.80;72.82;102854.69;10377633;28;20058;-72
2022/03/27 23:00:54;;;;;;;13.48;6.07;;;;;;;7.69;72.65;102839.44;10376761;28;20061;-71
2022/03/27 23:05:55;;;;;;;19.95;7.53;;;;;;;7.69;73.24;102837.59;10376055;28;20041;-73
2022/03/27 23:10:55;;;;;;;23.42;7.82;;;;;;;7.66;74.06;102831.63;10376542;28;20088;-72
2022/03/27 23:15:56;;;;;;;22.90;7.63;;;;;;;7.60;75.69;102830.28;10376925;28;20192;-71